Time;durP1;ratioP1;P1;durP2;ratioP2;P2;SDS_P1;SDS_P2;PMS_P1;PMS_P2;Temp;Humidity;BMP_temperature;BMP_pressure;BME280_temperature;BME280_humidity;BME280_pressure;Samples;Min_cycle;Max_cycle;Signal;HPM_P1;HPM_P2
2023/01/19 00:00:14;;;;;;;4.30;3.90;;;;;;;2.91;62.56;99728.78;4908895;28;97264;-48
2023/01/19 00:02:39;;;;;;;6.83;4.33;;;;;;;2.91;62.62;99722.59;4911275;28;97222;-49
2023/01/19 00:05:05;;;;;;;5.83;4.10;;;;;;;2.91;62.52;99723.38;4910272;28;97210;-50
2023/01/19 00:07:31;;;;;;;5.80;3.93;;;;;;;2.92;62.57;99715.97;4909764;28;96744;-49
2023/01/19 00:09:57;;;;;;;8.37;4.53;;;;;;;2.91;62.52;99714.44;4908484;28;96975;-49
2023/01/19 00:12:22;;;;;;;7.40;3.93;;;;;;;2.89;62.69;99719.59;4911276;28;97503;-49
2023/01/19 00:14:47;;;;;;;7.23;4.40;;;;;;;2.89;62.50;99703.31;4911497;28;97183;-48
2023/01/19 00:17:13;;;;;;;6.60;4.53;;;;;;;2.89;62.67;99708.75;4909582;28;96980;-50
2023/01/19 00:19:38;;;;;;;6.97;4.37;;;;;;;2.86;62.82;99718.56;4911791;28;97041;-48
2023/01/19 00:22:04;;;;;;;7.47;4.20;;;;;;;2.89;62.83;99719.59;4904687;28;96960;-48
2023/01/19 00:24:31;;;;;;;6.73;3.97;;;;;;;2.92;62.75;99714.00;4908103;28;97080;-49
2023/01/19 00:26:56;;;;;;;4.90;3.93;;;;;;;2.94;62.56;99724.41;4905931;28;97114;-48
2023/01/19 00:29:22;;;;;;;6.77;4.80;;;;;;;2.92;62.71;99716.72;4910418;28;97292;-49
2023/01/19 00:31:48;;;;;;;5.80;4.47;;;;;;;2.93;62.84;99718.22;4917461;28;97394;-48
2023/01/19 00:34:13;;;;;;;6.67;4.10;;;;;;;2.95;62.99;99718.50;4909328;28;97217;-48
2023/01/19 00:36:39;;;;;;;7.00;4.30;;;;;;;2.97;62.85;99716.06;4908455;28;97004;-49
2023/01/19 00:39:04;;;;;;;11.60;5.27;;;;;;;2.97;62.96;99718.06;4915080;28;97466;-49
2023/01/19 00:44:13;;;;;;;5.53;3.93;;;;;;;2.98;62.94;99722.25;4907155;28;97459;-48
2023/01/19 00:46:39;;;;;;;6.97;4.13;;;;;;;2.98;62.84;99712.16;4913008;28;97153;-48
2023/01/19 00:49:04;;;;;;;7.03;3.87;;;;;;;2.96;62.74;99733.59;4913946;28;97417;-48
2023/01/19 00:51:30;;;;;;;6.40;4.17;;;;;;;2.98;62.81;99723.03;4905751;28;98248;-49
2023/01/19 00:53:56;;;;;;;8.57;4.03;;;;;;;3.01;62.78;99730.22;4908231;28;96995;-48
2023/01/19 00:56:21;;;;;;;7.70;4.33;;;;;;;3.01;62.91;99724.78;4916599;28;96968;-48
2023/01/19 00:58:46;;;;;;;7.10;4.17;;;;;;;3.02;62.64;99725.56;4913501;28;97517;-48
2023/01/19 01:01:12;;;;;;;6.10;4.00;;;;;;;3.03;62.88;99725.09;4911489;28;97090;-49
2023/01/19 01:03:37;;;;;;;6.43;3.67;;;;;;;3.06;62.78;99717.97;4909256;28;97793;-49
2023/01/19 01:06:07;;;;;;;6.40;4.63;;;;;;;3.05;62.54;99727.34;4906529;28;97110;-49
2023/01/19 01:08:32;;;;;;;5.43;3.80;;;;;;;3.04;62.75;99717.69;4915866;28;97064;-48
2023/01/19 01:10:57;;;;;;;6.90;3.97;;;;;;;3.04;62.65;99721.16;4913634;28;97202;-49
2023/01/19 01:13:23;;;;;;;5.33;3.70;;;;;;;3.05;62.66;99716.50;4908885;28;97278;-50
2023/01/19 01:15:50;;;;;;;5.57;4.17;;;;;;;3.02;62.68;99711.97;4914272;28;96989;-48
2023/01/19 01:18:15;;;;;;;6.50;4.00;;;;;;;3.01;62.81;99721.34;4910272;28;96817;-48
2023/01/19 01:20:40;;;;;;;4.60;3.90;;;;;;;3.02;62.83;99720.88;4911887;28;97349;-48
2023/01/19 01:23:06;;;;;;;4.70;3.80;;;;;;;3.02;62.86;99728.28;4914096;28;96706;-48
2023/01/19 01:25:36;;;;;;;7.60;4.20;;;;;;;3.03;62.95;99727.81;4911564;28;97051;-49
2023/01/19 01:28:02;;;;;;;6.57;4.00;;;;;;;3.06;62.76;99733.53;4908252;28;97217;-49
2023/01/19 01:30:27;;;;;;;5.07;3.63;;;;;;;3.07;62.92;99729.59;4914710;28;97097;-50
2023/01/19 01:32:53;;;;;;;5.40;4.37;;;;;;;3.05;62.75;99730.06;4916905;28;97452;-48
2023/01/19 01:35:18;;;;;;;5.40;4.10;;;;;;;3.03;62.78;99725.09;4914417;28;97198;-49
2023/01/19 01:37:44;;;;;;;9.67;4.47;;;;;;;2.99;62.55;99732.66;4911235;28;96950;-49
2023/01/19 01:40:13;;;;;;;5.80;3.53;;;;;;;2.98;62.55;99725.75;4911088;28;97277;-49
2023/01/19 01:42:39;;;;;;;4.90;3.77;;;;;;;2.97;62.73;99737.06;4910495;28;97148;-49
2023/01/19 01:45:26;;;;;;;4.43;3.77;;;;;;;2.98;62.78;99725.75;4910167;28;96695;-49
2023/01/19 01:47:53;;;;;;;6.80;4.23;;;;;;;2.96;62.71;99739.03;4913162;28;97015;-48
2023/01/19 01:50:23;;;;;;;10.60;4.20;;;;;;;2.99;62.73;99740.06;4909052;28;97413;-48
2023/01/19 01:52:51;;;;;;;6.00;4.67;;;;;;;3.01;62.82;99743.81;4910917;28;96986;-48
2023/01/19 01:55:19;;;;;;;5.80;4.03;;;;;;;3.05;62.82;99735.50;4915980;28;97127;-49
2023/01/19 01:57:48;;;;;;;5.23;3.83;;;;;;;3.09;62.87;99733.34;4914823;28;97228;-49
2023/01/19 02:00:15;;;;;;;6.70;4.53;;;;;;;3.11;62.87;99741.03;4914486;28;96897;-48
2023/01/19 02:02:50;;;;;;;5.80;3.90;;;;;;;3.13;63.02;99738.59;4911635;28;96583;-48
2023/01/19 02:05:29;;;;;;;5.33;3.87;;;;;;;3.23;63.15;99735.38;4908685;28;97122;-48
2023/01/19 02:13:39;;;;;;;12.43;4.00;;;;;;;3.38;62.77;99732.69;4909999;28;96971;-49
2023/01/19 02:16:07;;;;;;;5.70;3.70;;;;;;;3.42;62.99;99733.28;4912211;28;97244;-48
2023/01/19 02:18:33;;;;;;;5.57;4.63;;;;;;;3.45;62.86;99727.66;4911615;28;96942;-48
2023/01/19 02:21:08;;;;;;;5.13;4.17;;;;;;;3.52;62.93;99727.28;4908819;28;97860;-48
2023/01/19 02:23:49;;;;;;;5.90;4.20;;;;;;;3.55;63.02;99720.16;4913571;28;96750;-49
2023/01/19 02:26:35;;;;;;;6.53;3.83;;;;;;;3.58;62.92;99719.97;4911199;28;96599;-48
2023/01/19 02:29:04;;;;;;;5.23;4.03;;;;;;;3.61;62.92;99718.31;4904624;28;96803;-49
2023/01/19 02:31:32;;;;;;;6.10;4.30;;;;;;;3.64;62.96;99715.41;4913455;28;97003;-49
2023/01/19 02:33:59;;;;;;;5.40;4.37;;;;;;;3.67;63.05;99713.69;4907364;28;98440;-48
2023/01/19 02:36:34;;;;;;;4.63;3.80;;;;;;;3.73;62.88;99720.75;4909645;28;97094;-48
2023/01/19 02:39:02;;;;;;;4.53;3.60;;;;;;;3.74;63.05;99719.53;4915585;28;97163;-49
2023/01/19 02:41:33;;;;;;;3.73;3.33;;;;;;;3.76;62.81;99724.50;4912967;28;97186;-48
2023/01/19 02:43:59;;;;;;;4.63;3.30;;;;;;;3.77;62.70;99721.34;4909471;28;96975;-48
2023/01/19 02:46:25;;;;;;;4.90;3.80;;;;;;;3.83;62.64;99728.81;4913145;28;97155;-50
2023/01/19 02:48:50;;;;;;;4.40;3.77;;;;;;;3.83;63.04;99723.38;4914033;28;96833;-49
2023/01/19 02:51:22;;;;;;;5.10;3.53;;;;;;;3.88;62.99;99728.19;4911338;28;98259;-49
2023/01/19 02:54:00;;;;;;;3.63;3.30;;;;;;;3.91;63.13;99719.81;4915502;28;97713;-48
2023/01/19 02:56:49;;;;;;;5.90;3.90;;;;;;;3.95;62.83;99720.41;4907135;28;96999;-49
2023/01/19 02:59:17;;;;;;;5.27;3.20;;;;;;;3.97;62.78;99723.41;4909764;28;97116;-50
2023/01/19 03:02:08;;;;;;;3.90;3.40;;;;;;;3.99;62.89;99731.84;4916113;28;98098;-50
2023/01/19 03:04:39;;;;;;;5.00;4.07;;;;;;;3.99;62.77;99731.84;4909512;28;97147;-49
2023/01/19 03:07:17;;;;;;;5.63;3.87;;;;;;;4.00;62.75;99725.16;4909682;28;97063;-49
2023/01/19 03:10:10;;;;;;;4.50;3.37;;;;;;;4.02;62.85;99725.44;4908950;28;97055;-49
2023/01/19 03:12:50;;;;;;;6.10;4.00;;;;;;;4.03;63.14;99718.81;4898140;28;97002;-49
2023/01/19 03:15:26;;;;;;;4.70;3.30;;;;;;;4.02;62.77;99714.56;4912835;28;97160;-48
2023/01/19 03:17:52;;;;;;;4.47;4.07;;;;;;;4.07;62.92;99722.06;4916196;28;97006;-49
2023/01/19 03:20:23;;;;;;;6.07;3.63;;;;;;;4.09;63.02;99724.31;4908583;28;96942;-50
2023/01/19 03:22:57;;;;;;;14.50;4.47;;;;;;;4.12;63.19;99709.78;4916939;28;96991;-50
2023/01/19 03:25:23;;;;;;;5.60;4.60;;;;;;;4.16;63.18;99713.06;4912989;28;97602;-50
2023/01/19 03:27:51;;;;;;;4.87;3.80;;;;;;;4.19;63.06;99718.34;4908634;28;97041;-50
2023/01/19 03:30:23;;;;;;;4.53;3.70;;;;;;;4.22;63.02;99719.34;4909875;28;97218;-48
2023/01/19 03:32:58;;;;;;;9.43;3.70;;;;;;;4.21;63.21;99715.13;4912906;28;97227;-49
2023/01/19 03:35:30;;;;;;;5.40;3.70;;;;;;;4.20;62.78;99714.38;4906803;28;97340;-48
2023/01/19 03:37:59;;;;;;;5.80;4.00;;;;;;;4.21;63.11;99720.56;4915876;28;96859;-49
2023/01/19 03:40:31;;;;;;;5.23;4.20;;;;;;;4.27;63.14;99719.44;4911689;28;97402;-50
2023/01/19 03:42:58;;;;;;;5.37;3.60;;;;;;;4.32;62.89;99720.75;4907426;28;96921;-49
2023/01/19 03:45:24;;;;;;;5.10;3.77;;;;;;;4.32;62.88;99718.78;4912783;28;97676;-49
2023/01/19 03:47:50;;;;;;;4.80;3.70;;;;;;;4.34;62.93;99719.06;4915241;28;97820;-48
2023/01/19 03:50:34;;;;;;;4.90;3.53;;;;;;;4.37;62.73;99718.09;4907291;28;96567;-48
2023/01/19 03:53:10;;;;;;;5.17;4.10;;;;;;;4.38;62.88;99711.44;4910619;28;97268;-49
2023/01/19 03:55:38;;;;;;;5.43;4.93;;;;;;;4.41;62.85;99709.75;4914633;28;97171;-50
2023/01/19 03:58:04;;;;;;;3.93;3.47;;;;;;;4.40;63.04;99708.25;4916800;28;96644;-48
2023/01/19 04:00:29;;;;;;;5.87;4.43;;;;;;;4.40;63.04;99711.72;4918831;28;97022;-49
2023/01/19 04:02:55;;;;;;;4.60;4.00;;;;;;;4.45;63.17;99708.34;4914852;28;97349;-49
2023/01/19 04:05:21;;;;;;;4.70;3.60;;;;;;;4.47;63.12;99710.56;4909489;28;97131;-48
2023/01/19 04:07:51;;;;;;;6.53;4.30;;;;;;;4.49;62.83;99705.41;4908015;28;96953;-48
2023/01/19 04:10:17;;;;;;;4.87;3.77;;;;;;;4.50;63.00;99704.94;4909152;28;97067;-49
2023/01/19 04:12:43;;;;;;;5.90;3.60;;;;;;;4.52;62.87;99707.91;4906160;28;97282;-49
2023/01/19 04:15:08;;;;;;;7.30;4.30;;;;;;;4.53;63.25;99708.69;4913043;28;98129;-48
2023/01/19 04:17:33;;;;;;;5.23;4.17;;;;;;;4.59;63.15;99706.06;4914531;28;96978;-50
2023/01/19 04:19:59;;;;;;;6.50;3.77;;;;;;;4.60;63.12;99710.25;4908757;28;97110;-48
2023/01/19 04:22:24;;;;;;;5.97;3.93;;;;;;;4.61;63.05;99711.78;4906175;28;96759;-49
2023/01/19 04:24:50;;;;;;;7.33;4.10;;;;;;;4.64;63.03;99694.47;4909574;28;96763;-51
2023/01/19 04:27:16;;;;;;;5.87;4.37;;;;;;;4.63;63.10;99692.97;4906926;28;97239;-49
2023/01/19 04:29:41;;;;;;;10.07;4.37;;;;;;;4.64;63.18;99697.94;4911072;28;97095;-51
2023/01/19 04:32:07;;;;;;;5.83;4.00;;;;;;;4.66;63.23;99694.72;4916203;28;96848;-48
2023/01/19 04:34:32;;;;;;;4.77;3.63;;;;;;;4.71;63.53;99696.78;4910828;28;96986;-49
2023/01/19 04:36:58;;;;;;;4.80;3.80;;;;;;;4.72;63.07;99701.03;4906701;28;96989;-50
2023/01/19 04:39:23;;;;;;;8.57;4.73;;;;;;;4.71;63.16;99696.78;4911794;28;96719;-50
2023/01/19 04:41:50;;;;;;;7.00;4.47;;;;;;;4.76;63.38;99693.41;4911790;28;98418;-49
2023/01/19 04:44:16;;;;;;;6.37;3.70;;;;;;;4.79;63.29;99684.25;4909439;28;97307;-51
2023/01/19 04:46:41;;;;;;;6.73;4.70;;;;;;;4.80;62.96;99702.13;4912853;28;97061;-49
2023/01/19 04:49:07;;;;;;;6.47;4.47;;;;;;;4.84;63.29;99694.50;4910303;28;97109;-50
2023/01/19 04:51:33;;;;;;;6.70;4.60;;;;;;;4.84;62.95;99687.06;4894518;28;97004;-49
2023/01/19 04:53:58;;;;;;;6.43;4.43;;;;;;;4.85;63.13;99690.56;4908175;28;96929;-50
2023/01/19 04:56:23;;;;;;;5.80;4.10;;;;;;;4.89;63.35;99691.81;4907078;28;96954;-49
2023/01/19 04:58:49;;;;;;;6.43;4.70;;;;;;;4.90;63.08;99689.84;4905384;28;97143;-50
2023/01/19 05:01:14;;;;;;;4.73;3.83;;;;;;;4.91;63.14;99688.66;4906790;28;97259;-51
2023/01/19 05:03:39;;;;;;;7.10;4.30;;;;;;;4.91;63.38;99689.41;4905625;28;97169;-49
2023/01/19 05:06:06;;;;;;;6.07;4.07;;;;;;;4.94;63.12;99696.59;4906382;28;96937;-49
2023/01/19 05:08:31;;;;;;;4.23;3.80;;;;;;;4.95;63.37;99689.94;4904701;28;97770;-50
2023/01/19 05:10:56;;;;;;;4.13;3.73;;;;;;;4.96;63.31;99696.13;4905912;28;96922;-50
2023/01/19 05:13:22;;;;;;;8.20;5.00;;;;;;;4.96;63.01;99693.41;4905031;28;97204;-50
2023/01/19 05:15:47;;;;;;;5.50;3.40;;;;;;;5.01;63.15;99693.47;4912499;28;96639;-50
2023/01/19 05:18:12;;;;;;;5.13;4.63;;;;;;;5.02;63.23;99699.69;4911184;28;97156;-49
2023/01/19 05:20:38;;;;;;;6.50;3.97;;;;;;;5.05;63.44;99693.25;4907938;28;96979;-50
2023/01/19 05:23:04;;;;;;;4.67;3.17;;;;;;;5.08;63.47;99698.53;4905944;28;97504;-49
2023/01/19 05:25:29;;;;;;;4.17;3.77;;;;;;;5.12;62.84;99699.06;4905933;28;96764;-49
2023/01/19 05:27:55;;;;;;;8.73;3.67;;;;;;;5.15;63.11;99698.13;4904407;28;97466;-50
2023/01/19 05:30:20;;;;;;;5.63;4.47;;;;;;;5.13;63.08;99697.81;4914567;28;97201;-49
2023/01/19 05:32:46;;;;;;;5.37;4.07;;;;;;;5.17;63.21;99714.00;4910664;28;97114;-50
2023/01/19 05:35:13;;;;;;;7.80;4.00;;;;;;;5.17;62.79;99697.63;4906876;28;98037;-49
2023/01/19 05:37:38;;;;;;;8.40;4.10;;;;;;;5.17;63.10;99708.53;4910637;28;97099;-49
2023/01/19 05:40:04;;;;;;;7.10;5.30;;;;;;;5.18;62.93;99701.84;4911883;28;96784;-50
2023/01/19 05:42:30;;;;;;;4.17;3.53;;;;;;;5.18;63.04;99704.56;4915788;28;96955;-50
2023/01/19 05:44:56;;;;;;;7.27;5.10;;;;;;;5.15;62.92;99709.03;4914724;28;97181;-49
2023/01/19 05:47:21;;;;;;;4.40;3.50;;;;;;;5.15;63.05;99713.72;4912062;28;96996;-49
2023/01/19 05:49:46;;;;;;;4.83;3.70;;;;;;;5.18;63.02;99712.75;4907494;28;97843;-50
2023/01/19 05:52:12;;;;;;;6.10;4.70;;;;;;;5.18;63.08;99712.75;4911128;28;97179;-50
2023/01/19 05:54:39;;;;;;;3.87;3.50;;;;;;;5.21;63.18;99711.81;4910529;28;97125;-49
2023/01/19 05:57:05;;;;;;;6.60;4.57;;;;;;;5.19;63.02;99717.75;4908830;28;96727;-49
2023/01/19 05:59:30;;;;;;;6.50;4.23;;;;;;;5.23;62.96;99721.00;4912977;28;96915;-49
2023/01/19 06:01:56;;;;;;;4.90;4.30;;;;;;;5.25;63.11;99726.72;4913962;28;96782;-50
2023/01/19 06:04:21;;;;;;;4.77;4.07;;;;;;;5.26;63.15;99722.03;4911535;28;97094;-50
2023/01/19 06:06:50;;;;;;;6.57;4.40;;;;;;;5.25;63.08;99724.00;4912195;28;97301;-50
2023/01/19 06:09:16;;;;;;;4.50;4.07;;;;;;;5.27;63.00;99724.28;4914550;28;96896;-49
2023/01/19 06:11:42;;;;;;;4.77;3.73;;;;;;;5.28;63.02;99722.31;4916253;28;97072;-49
2023/01/19 06:14:09;;;;;;;4.80;3.50;;;;;;;5.31;62.98;99733.00;4909482;28;97059;-49
2023/01/19 06:16:35;;;;;;;5.40;3.90;;;;;;;5.35;63.05;99735.53;4917195;28;97216;-50
2023/01/19 06:19:00;;;;;;;5.13;3.90;;;;;;;5.32;62.95;99739.22;4911672;28;97380;-49
2023/01/19 06:21:26;;;;;;;4.23;3.87;;;;;;;5.32;63.00;99739.97;4908957;28;97660;-50
2023/01/19 06:23:51;;;;;;;7.57;3.97;;;;;;;5.32;63.19;99739.22;4917432;28;97133;-49
2023/01/19 06:26:16;;;;;;;4.43;3.90;;;;;;;5.28;63.03;99736.69;4908810;28;98534;-49
2023/01/19 06:28:42;;;;;;;4.30;3.90;;;;;;;5.33;63.16;99743.41;4907458;28;97444;-50
2023/01/19 06:31:07;;;;;;;4.30;3.90;;;;;;;5.31;63.35;99749.34;4911794;28;97306;-49
2023/01/19 06:33:33;;;;;;;5.93;4.27;;;;;;;5.30;62.74;99747.13;4909029;28;97335;-50
2023/01/19 06:35:58;;;;;;;7.50;3.93;;;;;;;5.31;63.23;99752.09;4906939;28;96950;-50
2023/01/19 06:38:24;;;;;;;3.90;3.50;;;;;;;5.32;62.96;99747.38;4915679;28;97177;-49
2023/01/19 06:40:57;;;;;;;6.13;4.43;;;;;;;5.36;63.25;99750.66;4912301;28;97222;-50
2023/01/19 06:43:23;;;;;;;4.60;3.97;;;;;;;5.39;63.01;99757.88;4907261;28;97160;-50
2023/01/19 06:45:49;;;;;;;7.90;4.23;;;;;;;5.37;63.02;99749.44;4916672;28;96695;-49
2023/01/19 06:48:15;;;;;;;4.00;3.70;;;;;;;5.37;62.91;99751.41;4911990;28;96608;-50
2023/01/19 06:50:40;;;;;;;7.77;4.30;;;;;;;5.40;63.01;99755.88;4909190;28;97781;-49
2023/01/19 06:53:06;;;;;;;3.73;3.30;;;;;;;5.41;62.80;99758.16;4910004;28;96999;-50
2023/01/19 06:55:31;;;;;;;4.20;3.80;;;;;;;5.42;62.80;99758.91;4913420;28;97075;-50
2023/01/19 06:57:58;;;;;;;9.13;3.97;;;;;;;5.42;63.14;99773.28;4908563;28;97256;-49
2023/01/19 07:00:24;;;;;;;4.80;4.00;;;;;;;5.46;62.84;99770.38;4913236;28;97176;-50
2023/01/19 07:02:49;;;;;;;15.60;4.60;;;;;;;5.50;62.81;99774.38;4917678;28;96844;-50
2023/01/19 07:05:15;;;;;;;4.37;3.67;;;;;;;5.50;62.70;99777.09;4908883;28;97339;-50
2023/01/19 07:07:41;;;;;;;3.80;3.40;;;;;;;5.53;62.75;99778.09;4920416;28;97419;-50
2023/01/19 07:10:10;;;;;;;3.30;2.90;;;;;;;5.52;62.84;99776.63;4914498;28;96915;-50
2023/01/19 07:12:36;;;;;;;5.57;3.30;;;;;;;5.55;62.70;99783.88;4908476;28;97119;-50
2023/01/19 07:15:02;;;;;;;4.60;3.80;;;;;;;5.55;62.45;99778.41;4911740;28;97313;-50
2023/01/19 07:17:27;;;;;;;5.60;3.77;;;;;;;5.57;62.59;99792.31;4913850;28;97251;-48
2023/01/19 07:19:52;;;;;;;5.37;3.60;;;;;;;5.56;62.38;99791.56;4907691;28;97173;-53
2023/01/19 07:22:18;;;;;;;3.70;3.23;;;;;;;5.59;62.28;99792.59;4913667;28;97365;-48
2023/01/19 07:24:43;;;;;;;5.87;3.87;;;;;;;5.60;62.33;99796.78;4914827;28;97159;-49
2023/01/19 07:27:10;;;;;;;4.13;3.60;;;;;;;5.59;62.50;99795.31;4910073;28;97780;-49
2023/01/19 07:29:36;;;;;;;7.70;3.23;;;;;;;5.60;62.64;99802.25;4910971;28;97737;-51
2023/01/19 07:32:01;;;;;;;7.40;4.10;;;;;;;5.61;62.56;99795.59;4914513;28;97251;-49
2023/01/19 07:34:26;;;;;;;3.80;3.33;;;;;;;5.60;62.62;99802.25;4923543;28;97148;-49
2023/01/19 07:36:52;;;;;;;4.00;3.60;;;;;;;5.59;62.25;99806.94;4911094;28;97287;-49
2023/01/19 07:39:17;;;;;;;3.83;2.80;;;;;;;5.57;62.19;99811.41;4911599;28;97351;-49
2023/01/19 07:41:42;;;;;;;8.47;3.80;;;;;;;5.57;62.50;99811.41;4909381;28;97248;-50
2023/01/19 07:44:08;;;;;;;3.40;3.20;;;;;;;5.55;62.26;99822.06;4904780;28;96942;-50
2023/01/19 07:46:33;;;;;;;4.73;3.30;;;;;;;5.58;62.37;99821.09;4909921;28;97834;-49
2023/01/19 07:48:59;;;;;;;4.70;3.60;;;;;;;5.60;62.62;99821.34;4912105;28;97597;-49
2023/01/19 07:51:24;;;;;;;3.77;3.37;;;;;;;5.63;62.54;99823.88;4910413;28;96652;-49
2023/01/19 07:53:50;;;;;;;6.13;3.90;;;;;;;5.65;62.23;99826.88;4911124;28;96976;-49
2023/01/19 07:56:16;;;;;;;4.00;3.37;;;;;;;5.66;62.03;99828.38;4909717;28;97878;-49
2023/01/19 07:58:41;;;;;;;3.80;3.40;;;;;;;5.68;61.95;99830.66;4908773;28;97735;-50
2023/01/19 08:01:09;;;;;;;3.50;3.20;;;;;;;5.69;62.19;99837.59;4910956;28;96855;-50
2023/01/19 08:03:34;;;;;;;3.93;3.07;;;;;;;5.70;62.18;99839.81;4909104;28;97300;-49
2023/01/19 08:06:01;;;;;;;3.43;3.00;;;;;;;5.69;62.21;99832.13;4907970;28;97739;-49
2023/01/19 08:08:28;;;;;;;3.63;3.20;;;;;;;5.68;62.01;99836.81;4911145;28;97089;-50
2023/01/19 08:10:53;;;;;;;4.23;3.57;;;;;;;5.67;61.88;99842.78;4911104;28;97088;-50
2023/01/19 08:13:19;;;;;;;3.47;3.17;;;;;;;5.64;61.97;99847.19;4906928;28;96972;-49
2023/01/19 08:15:49;;;;;;;3.17;2.80;;;;;;;5.65;62.19;99845.22;4913788;28;97236;-49
2023/01/19 08:18:14;;;;;;;3.43;3.00;;;;;;;5.65;61.98;99850.69;4912107;28;97515;-49
2023/01/19 08:20:40;;;;;;;7.33;4.40;;;;;;;5.63;61.94;99850.41;4907713;28;97106;-49
2023/01/19 08:23:05;;;;;;;5.83;2.90;;;;;;;5.62;62.20;99849.66;4913184;28;97411;-50
2023/01/19 08:25:36;;;;;;;4.33;3.00;;;;;;;5.63;62.02;99862.09;4910820;28;97546;-50
2023/01/19 08:28:02;;;;;;;3.27;2.97;;;;;;;5.63;61.97;99855.88;4904845;28;96675;-51
2023/01/19 08:30:29;;;;;;;4.60;2.97;;;;;;;5.64;61.66;99863.56;4908195;28;97016;-48
2023/01/19 08:33:02;;;;;;;3.57;2.97;;;;;;;5.63;61.78;99861.31;4910209;28;97294;-49
2023/01/19 08:35:31;;;;;;;4.27;2.90;;;;;;;5.62;61.81;99859.81;4909410;28;96978;-50
2023/01/19 08:38:00;;;;;;;4.10;2.90;;;;;;;5.62;62.04;99868.00;4912766;28;97226;-50
2023/01/19 08:40:29;;;;;;;3.70;3.20;;;;;;;5.62;62.21;99865.28;4909939;28;96578;-50
2023/01/19 08:43:04;;;;;;;4.33;3.23;;;;;;;5.63;61.79;99874.97;4907485;28;97024;-48
2023/01/19 08:45:30;;;;;;;3.17;2.60;;;;;;;5.64;62.06;99877.22;4908656;28;98145;-49
2023/01/19 08:47:57;;;;;;;3.03;2.83;;;;;;;5.66;62.26;99871.28;4910352;28;97064;-49
2023/01/19 08:50:24;;;;;;;5.00;3.90;;;;;;;5.66;61.86;99874.00;4906995;28;97119;-48
2023/01/19 08:52:49;;;;;;;5.00;3.20;;;;;;;5.63;62.27;99875.72;4910676;28;97072;-48
2023/01/19 08:55:15;;;;;;;5.33;3.83;;;;;;;5.60;62.15;99879.41;4906729;28;97475;-49
2023/01/19 08:57:41;;;;;;;5.93;3.90;;;;;;;5.56;62.37;99883.56;4906953;28;97583;-49
2023/01/19 09:00:07;;;;;;;7.80;4.00;;;;;;;5.53;62.42;99885.25;4906720;28;97354;-49
2023/01/19 09:02:33;;;;;;;5.30;4.30;;;;;;;5.53;62.38;99896.16;4910634;28;96623;-50
2023/01/19 09:04:59;;;;;;;4.40;4.00;;;;;;;5.55;62.70;99893.72;4902631;28;98563;-48
2023/01/19 09:07:24;;;;;;;5.57;3.80;;;;;;;5.55;62.85;99904.63;4910123;28;97298;-52
2023/01/19 09:09:49;;;;;;;3.93;3.53;;;;;;;5.51;62.90;99900.59;4910971;28;97106;-49
2023/01/19 09:12:15;;;;;;;7.00;3.80;;;;;;;5.48;62.86;99907.00;4907752;28;96799;-50
2023/01/19 09:14:41;;;;;;;5.97;3.63;;;;;;;5.47;63.03;99914.44;4910857;28;96986;-48
2023/01/19 09:17:06;;;;;;;4.10;3.70;;;;;;;5.51;62.92;99914.97;4909307;28;97161;-49
2023/01/19 09:19:31;;;;;;;5.73;3.90;;;;;;;5.52;63.01;99913.78;4906944;28;97281;-48
2023/01/19 09:21:58;;;;;;;4.63;4.23;;;;;;;5.54;62.91;99914.03;4912450;28;97107;-49
2023/01/19 09:24:23;;;;;;;5.50;3.53;;;;;;;5.53;63.21;99917.97;4913591;28;96890;-48
2023/01/19 09:26:49;;;;;;;4.93;3.70;;;;;;;5.55;63.18;99912.81;4912878;28;97608;-47
2023/01/19 09:29:14;;;;;;;6.20;4.20;;;;;;;5.57;63.35;99915.06;4908726;28;97045;-49
2023/01/19 09:31:40;;;;;;;4.50;4.10;;;;;;;5.58;63.23;99917.31;4913525;28;97390;-49
2023/01/19 09:34:05;;;;;;;3.90;3.43;;;;;;;5.59;63.15;99924.25;4911207;28;97203;-49
2023/01/19 09:36:31;;;;;;;4.77;3.40;;;;;;;5.57;63.27;99926.72;4912097;28;97228;-48
2023/01/19 09:38:56;;;;;;;5.00;4.20;;;;;;;5.60;63.34;99935.94;4913894;28;97280;-52
2023/01/19 09:41:24;;;;;;;4.10;3.27;;;;;;;5.61;63.12;99932.75;4911427;28;97199;-49
2023/01/19 09:43:55;;;;;;;6.00;4.23;;;;;;;5.64;63.16;99939.22;4914135;28;97358;-48
2023/01/19 09:46:33;;;;;;;5.40;4.30;;;;;;;5.62;63.30;99930.75;4912737;28;97464;-52
2023/01/19 09:49:05;;;;;;;10.80;3.93;;;;;;;5.63;63.12;99935.00;4910471;28;97401;-50
2023/01/19 09:51:39;;;;;;;6.30;3.97;;;;;;;5.64;63.10;99939.97;4911927;28;96576;-48
2023/01/19 09:54:14;;;;;;;4.10;3.70;;;;;;;5.64;63.26;99939.97;4912634;28;97003;-51
2023/01/19 09:56:41;;;;;;;5.03;3.70;;;;;;;5.62;63.29;99944.38;4913525;28;97058;-50
2023/01/19 09:59:25;;;;;;;9.80;5.30;;;;;;;5.63;63.59;99941.22;4909032;28;97133;-48
2023/01/19 10:02:02;;;;;;;3.57;3.17;;;;;;;5.62;63.37;99942.41;4911262;28;96889;-48
2023/01/19 10:04:39;;;;;;;4.50;3.80;;;;;;;5.62;63.36;99945.16;4910192;28;97367;-49
2023/01/19 10:07:25;;;;;;;4.33;4.00;;;;;;;5.63;63.83;99949.38;4912233;28;97216;-49
2023/01/19 10:10:08;;;;;;;3.73;3.43;;;;;;;5.60;63.64;99944.13;4914433;28;96776;-49
2023/01/19 10:12:55;;;;;;;3.80;3.50;;;;;;;5.60;63.79;99949.56;4910066;28;97090;-51
2023/01/19 10:15:42;;;;;;;3.50;3.20;;;;;;;5.55;63.75;99953.00;4916594;28;99122;-50
2023/01/19 10:18:16;;;;;;;3.10;2.83;;;;;;;5.54;64.09;99946.03;4914592;28;97278;-48
2023/01/19 10:20:59;;;;;;;2.80;2.60;;;;;;;5.54;64.43;99949.50;4911433;28;97244;-49
2023/01/19 10:23:35;;;;;;;2.97;2.67;;;;;;;5.51;64.00;99942.25;4916821;28;97447;-51
2023/01/19 10:26:08;;;;;;;2.57;2.37;;;;;;;5.47;64.27;99946.41;4911239;28;97407;-49
2023/01/19 10:28:37;;;;;;;2.33;2.23;;;;;;;5.48;64.01;99943.22;4909641;28;96997;-49
2023/01/19 10:31:05;;;;;;;2.10;2.00;;;;;;;5.47;64.03;99944.44;4917036;28;97236;-49
2023/01/19 10:33:32;;;;;;;3.00;2.47;;;;;;;5.47;64.18;99952.63;4910524;28;97164;-49
2023/01/19 10:35:57;;;;;;;2.40;2.20;;;;;;;5.47;64.14;99951.88;4909647;28;97654;-48
2023/01/19 10:38:23;;;;;;;1.90;1.80;;;;;;;5.49;64.19;99957.59;4912476;28;96998;-50
2023/01/19 10:40:53;;;;;;;2.27;2.17;;;;;;;5.55;64.49;99953.00;4914101;28;96640;-49
2023/01/19 10:43:33;;;;;;;2.87;2.67;;;;;;;5.58;64.76;99952.78;4907860;28;96930;-49
2023/01/19 10:46:00;;;;;;;2.10;2.00;;;;;;;5.60;64.19;99950.34;4914935;28;97569;-49
2023/01/19 10:48:25;;;;;;;2.30;2.10;;;;;;;5.62;64.37;99963.50;4920509;28;97705;-49
2023/01/19 10:51:02;;;;;;;2.73;2.53;;;;;;;5.60;64.78;99960.47;4912589;28;96775;-49
2023/01/19 10:53:27;;;;;;;2.23;2.13;;;;;;;5.57;64.29;99961.44;4917935;28;97201;-54
2023/01/19 10:56:11;;;;;;;2.50;2.40;;;;;;;5.59;64.89;99956.28;4910360;28;97240;-50
2023/01/19 10:58:38;;;;;;;2.77;2.57;;;;;;;5.63;64.69;99965.00;4907589;28;96715;-50
2023/01/19 11:01:18;;;;;;;3.33;3.00;;;;;;;5.65;64.73;99963.31;4913592;28;96850;-49
2023/01/19 11:03:45;;;;;;;2.23;2.13;;;;;;;5.65;64.28;99957.09;4911730;28;96662;-49
2023/01/19 11:06:16;;;;;;;2.93;2.73;;;;;;;5.71;64.72;99964.13;4909753;28;97370;-49
2023/01/19 11:08:42;;;;;;;3.37;3.07;;;;;;;5.77;64.83;99958.72;4917123;28;97334;-49
2023/01/19 11:11:11;;;;;;;2.77;2.53;;;;;;;5.79;64.66;99969.94;4909021;28;96776;-49
2023/01/19 11:13:44;;;;;;;2.47;2.27;;;;;;;5.84;64.42;99958.38;4909607;28;96792;-50
2023/01/19 11:16:29;;;;;;;3.20;2.67;;;;;;;5.89;64.64;99957.69;4914736;28;98100;-51
2023/01/19 11:18:56;;;;;;;4.73;3.30;;;;;;;5.94;64.74;99965.22;4909354;28;97141;-49
2023/01/19 11:21:25;;;;;;;5.90;3.53;;;;;;;5.99;64.46;99959.06;4909771;28;96991;-49
2023/01/19 11:23:54;;;;;;;3.87;3.37;;;;;;;6.04;64.34;99961.88;4915256;28;97186;-49
2023/01/19 11:26:48;;;;;;;3.77;3.47;;;;;;;6.05;64.32;99965.34;4912141;28;97305;-50
2023/01/19 11:29:25;;;;;;;3.70;3.30;;;;;;;6.03;64.85;99965.06;4909066;28;97075;-49
2023/01/19 11:31:52;;;;;;;4.00;3.70;;;;;;;6.00;64.59;99964.06;4912709;28;97330;-50
2023/01/19 11:34:31;;;;;;;5.53;3.70;;;;;;;6.04;64.76;99961.13;4905784;28;96909;-49
2023/01/19 11:37:03;;;;;;;3.33;3.03;;;;;;;6.06;64.41;99964.13;4911026;28;97317;-49
2023/01/19 11:39:43;;;;;;;4.03;3.67;;;;;;;6.07;64.44;99960.91;4911089;28;97050;-50
2023/01/19 11:42:11;;;;;;;3.80;3.40;;;;;;;6.07;64.26;99960.91;4908743;28;96641;-50
2023/01/19 11:44:59;;;;;;;4.07;3.67;;;;;;;6.04;64.43;99966.59;4908017;28;96801;-50
2023/01/19 11:47:30;;;;;;;4.13;3.67;;;;;;;6.04;64.27;99970.06;4926412;28;97259;-50
2023/01/19 11:50:22;;;;;;;3.80;3.50;;;;;;;6.02;64.66;99969.78;4907180;28;97141;-50
2023/01/19 11:52:55;;;;;;;4.27;3.97;;;;;;;6.07;64.52;99964.88;4909498;28;97349;-50
2023/01/19 11:55:47;;;;;;;4.03;3.67;;;;;;;6.12;64.54;99966.91;4909164;28;96912;-50